Time;durP1;ratioP1;P1;durP2;ratioP2;P2;SDS_P1;SDS_P2;PMS_P1;PMS_P2;Temp;Humidity;BMP_temperature;BMP_pressure;BME280_temperature;BME280_humidity;BME280_pressure;Samples;Min_cycle;Max_cycle;Signal;HPM_P1;HPM_P2
2023/12/23 00:01:08;;;;;;;1.70;1.20;;;;;;;14.45;54.20;94958.77;105201;1257;66199;-46
2023/12/23 00:03:36;;;;;;;2.00;1.40;;;;;;;14.45;54.26;94956.63;105085;1257;71597;-46
2023/12/23 00:06:04;;;;;;;2.60;1.20;;;;;;;14.46;54.32;94959.24;105146;1260;62057;-46
2023/12/23 00:08:31;;;;;;;1.90;1.20;;;;;;;14.45;54.20;94962.02;105159;1258;62455;-46
2023/12/23 00:10:58;;;;;;;2.90;1.50;;;;;;;14.45;54.18;94960.40;105112;1259;76356;-45
2023/12/23 00:13:26;;;;;;;1.50;1.20;;;;;;;14.46;54.25;94955.63;105233;1260;66272;-46
2023/12/23 00:15:53;;;;;;;1.40;1.20;;;;;;;14.46;54.26;94956.70;105312;1259;72390;-46
2023/12/23 00:18:21;;;;;;;1.00;0.90;;;;;;;14.46;54.17;94957.92;105530;1259;62053;-47
2023/12/23 00:20:48;;;;;;;1.60;1.20;;;;;;;14.46;54.18;94955.77;105674;1258;62066;-45
2023/12/23 00:23:16;;;;;;;1.10;1.00;;;;;;;14.46;54.19;94955.23;105591;1259;74809;-45
2023/12/23 00:25:43;;;;;;;1.80;1.20;;;;;;;14.46;54.23;94954.54;105638;1261;66784;-45
2023/12/23 00:28:10;;;;;;;1.60;1.20;;;;;;;14.46;54.20;94951.55;105138;1257;72555;-47
2023/12/23 00:30:38;;;;;;;2.60;1.30;;;;;;;14.46;54.18;94945.39;105602;1260;62050;-46
2023/12/23 00:33:05;;;;;;;1.50;1.10;;;;;;;14.46;54.22;94948.48;105251;1257;62052;-44
2023/12/23 00:35:33;;;;;;;1.40;1.30;;;;;;;14.47;54.17;94954.39;105692;1258;75552;-45
2023/12/23 00:38:00;;;;;;;1.20;1.00;;;;;;;14.46;54.18;94948.23;105404;1261;65831;-45
2023/12/23 00:40:27;;;;;;;1.40;1.10;;;;;;;14.46;54.25;94955.08;105525;1258;72715;-45
2023/12/23 00:42:54;;;;;;;1.50;1.10;;;;;;;14.46;54.27;94957.46;105545;1261;62085;-45
2023/12/23 00:45:22;;;;;;;1.40;1.20;;;;;;;14.47;54.10;94962.86;105310;1258;62239;-45
2023/12/23 00:47:49;;;;;;;1.60;1.10;;;;;;;14.47;54.19;94961.23;105524;1260;75378;-45
2023/12/23 00:50:18;;;;;;;1.10;0.90;;;;;;;14.47;54.08;94968.70;105287;1257;66137;-45
2023/12/23 00:52:45;;;;;;;1.30;1.00;;;;;;;14.47;54.16;94970.33;105572;1257;72646;-45
2023/12/23 00:55:13;;;;;;;1.30;1.10;;;;;;;14.47;54.22;94963.63;105564;1260;62052;-45
2023/12/23 00:57:40;;;;;;;2.30;1.40;;;;;;;14.47;54.22;94969.71;105656;1258;62029;-45
2023/12/23 01:00:10;;;;;;;1.50;1.10;;;;;;;14.48;54.16;94964.09;105594;1260;75268;-46
2023/12/23 01:02:37;;;;;;;1.90;1.10;;;;;;;14.48;54.14;94969.17;105567;1260;66251;-46
2023/12/23 01:05:06;;;;;;;1.60;1.10;;;;;;;14.48;54.10;94960.78;105241;1264;72592;-46
2023/12/23 01:07:33;;;;;;;1.60;1.30;;;;;;;14.49;54.10;94966.30;105570;1258;62166;-46
2023/12/23 01:10:00;;;;;;;1.60;1.20;;;;;;;14.49;54.08;94964.70;105520;1257;62140;-46
2023/12/23 01:12:28;;;;;;;1.40;1.10;;;;;;;14.50;54.13;94967.02;105589;1259;75474;-45
2023/12/23 01:14:55;;;;;;;1.80;1.30;;;;;;;14.50;54.02;94964.86;105551;1258;64099;-46
2023/12/23 01:17:22;;;;;;;2.30;1.10;;;;;;;14.50;54.14;94964.85;105472;1258;72644;-46
2023/12/23 01:19:50;;;;;;;1.20;1.00;;;;;;;14.49;54.07;94961.39;105084;1260;62019;-46
2023/12/23 01:22:18;;;;;;;1.60;1.10;;;;;;;14.50;54.09;94959.55;105382;1258;62157;-45
2023/12/23 01:24:45;;;;;;;1.90;1.00;;;;;;;14.50;54.10;94964.71;105092;1261;76429;-46
2023/12/23 01:27:12;;;;;;;1.20;1.10;;;;;;;14.50;54.08;94961.47;105432;1260;65954;-46
2023/12/23 01:29:40;;;;;;;1.70;1.20;;;;;;;14.51;54.08;94962.70;105342;1258;71527;-46
2023/12/23 01:32:07;;;;;;;1.40;1.00;;;;;;;14.51;54.11;94958.09;105186;1261;62646;-46
2023/12/23 01:34:35;;;;;;;1.20;1.10;;;;;;;14.51;54.08;94958.31;105188;1257;62076;-46
2023/12/23 01:37:03;;;;;;;1.20;1.00;;;;;;;14.51;54.12;94960.31;105175;1260;73990;-45
2023/12/23 01:39:31;;;;;;;1.30;1.10;;;;;;;14.52;54.02;94963.77;105182;1259;65811;-46
2023/12/23 01:41:58;;;;;;;1.70;1.10;;;;;;;14.51;54.07;94957.92;105307;1258;72616;-45
2023/12/23 01:44:26;;;;;;;1.60;1.10;;;;;;;14.52;53.97;94953.70;105181;1260;62087;-46
2023/12/23 01:46:53;;;;;;;1.50;1.10;;;;;;;14.52;53.97;94955.54;105377;1257;62538;-46
2023/12/23 01:49:20;;;;;;;2.10;1.10;;;;;;;14.52;54.01;94954.08;105051;1258;76470;-45
2023/12/23 01:51:48;;;;;;;1.20;1.10;;;;;;;14.53;54.06;94955.70;105162;1261;64091;-45
2023/12/23 01:54:15;;;;;;;2.20;1.10;;;;;;;14.53;54.01;94957.45;105219;1258;72743;-46
2023/12/23 01:56:42;;;;;;;1.40;1.10;;;;;;;14.53;53.97;94951.15;105028;1263;62143;-45
2023/12/23 01:59:10;;;;;;;1.90;1.30;;;;;;;14.53;53.92;94955.07;104995;1256;62130;-46
2023/12/23 02:01:37;;;;;;;1.40;1.10;;;;;;;14.54;54.04;94960.91;105159;1257;75388;-46
2023/12/23 02:04:05;;;;;;;2.10;1.30;;;;;;;14.54;53.98;94955.22;105094;1263;66236;-46
2023/12/23 02:06:32;;;;;;;1.50;1.10;;;;;;;14.53;53.96;94954.91;105244;1257;71148;-46
2023/12/23 02:09:01;;;;;;;1.70;1.10;;;;;;;14.54;54.00;94959.30;105487;1260;62142;-44
2023/12/23 02:11:33;;;;;;;1.10;1.00;;;;;;;14.54;53.91;94958.30;105518;1258;62199;-46
2023/12/23 02:14:09;;;;;;;1.90;0.90;;;;;;;14.54;53.91;94956.84;105144;1260;75130;-45
2023/12/23 02:16:36;;;;;;;1.60;1.10;;;;;;;14.55;54.00;94960.70;105198;1257;65161;-46
2023/12/23 02:19:04;;;;;;;1.40;1.10;;;;;;;14.55;53.90;94956.00;105260;1263;73502;-45
2023/12/23 02:21:31;;;;;;;1.50;1.00;;;;;;;14.55;54.00;94955.93;105360;1261;62046;-45
2023/12/23 02:23:59;;;;;;;1.30;1.10;;;;;;;14.55;53.97;94955.62;105395;1257;62143;-45
2023/12/23 02:26:26;;;;;;;1.60;1.20;;;;;;;14.56;54.00;94963.30;105149;1264;75348;-46
2023/12/23 02:28:53;;;;;;;1.40;1.30;;;;;;;14.56;53.85;94973.55;105234;1257;66076;-46
2023/12/23 02:31:21;;;;;;;1.80;1.00;;;;;;;14.55;53.87;94969.30;105530;1257;72452;-47
2023/12/23 02:33:48;;;;;;;1.20;0.90;;;;;;;14.56;53.89;94971.69;105552;1259;62042;-47
2023/12/23 02:36:20;;;;;;;1.30;1.10;;;;;;;14.56;53.89;94967.84;105308;1258;62176;-47
2023/12/23 02:38:48;;;;;;;1.80;1.10;;;;;;;14.57;53.97;94966.77;105427;1258;75485;-47
2023/12/23 02:41:16;;;;;;;1.50;1.10;;;;;;;14.57;53.89;94961.84;105179;1260;66442;-45
2023/12/23 02:43:43;;;;;;;1.50;1.00;;;;;;;14.57;53.82;94966.39;105139;1259;72604;-45
2023/12/23 02:46:11;;;;;;;1.80;1.40;;;;;;;14.58;53.89;94963.00;105189;1260;62042;-45
2023/12/23 02:48:38;;;;;;;5.80;1.30;;;;;;;14.57;53.80;94962.23;105322;1258;62015;-45
2023/12/23 02:51:06;;;;;;;1.90;1.10;;;;;;;14.57;53.99;94966.85;105198;1259;75378;-45
2023/12/23 02:53:33;;;;;;;1.30;1.00;;;;;;;14.58;53.87;94968.44;105427;1260;63976;-45
2023/12/23 02:56:00;;;;;;;1.30;1.00;;;;;;;14.58;53.82;94968.45;105509;1257;72516;-45
2023/12/23 02:58:30;;;;;;;1.80;1.30;;;;;;;14.58;53.83;94972.54;105486;1257;62085;-45
2023/12/23 03:00:57;;;;;;;1.60;1.10;;;;;;;14.59;53.83;94975.61;105271;1264;62465;-45
2023/12/23 03:03:24;;;;;;;1.40;1.00;;;;;;;14.59;53.82;94971.68;105563;1258;75187;-45
2023/12/23 03:05:53;;;;;;;1.50;1.10;;;;;;;14.58;53.88;94975.84;105328;1259;66888;-45
2023/12/23 03:08:20;;;;;;;1.10;1.00;;;;;;;14.59;53.77;94977.69;105575;1257;72659;-45
2023/12/23 03:10:47;;;;;;;2.20;1.00;;;;;;;14.59;53.78;94980.92;105523;1261;61972;-45
2023/12/23 03:13:15;;;;;;;1.00;0.90;;;;;;;14.60;53.81;94988.69;105578;1257;62162;-45
2023/12/23 03:15:42;;;;;;;1.40;1.10;;;;;;;14.60;53.77;94992.15;105353;1257;75450;-47
2023/12/23 03:18:09;;;;;;;2.00;0.90;;;;;;;14.60;53.73;94996.38;105520;1261;66825;-45
2023/12/23 03:20:37;;;;;;;1.50;1.00;;;;;;;14.60;53.69;94994.45;105904;1258;72583;-45
2023/12/23 03:23:04;;;;;;;2.00;1.20;;;;;;;14.61;53.86;94998.91;105642;1262;62060;-45
2023/12/23 03:25:32;;;;;;;1.90;1.10;;;;;;;14.60;53.71;94999.77;105188;1256;62047;-46
2023/12/23 03:27:59;;;;;;;1.60;1.10;;;;;;;14.61;53.73;95001.39;105362;1259;75371;-45
2023/12/23 03:30:28;;;;;;;1.50;1.00;;;;;;;14.61;53.73;95004.16;106019;1260;66224;-45
2023/12/23 03:32:57;;;;;;;1.00;0.90;;;;;;;14.61;53.86;95014.16;105279;1258;72604;-45
2023/12/23 03:35:24;;;;;;;1.40;1.10;;;;;;;14.62;53.84;95017.39;105259;1260;62046;-45
2023/12/23 03:37:51;;;;;;;1.60;0.90;;;;;;;14.62;53.68;95019.02;105583;1258;62166;-45
2023/12/23 03:40:19;;;;;;;1.50;1.10;;;;;;;14.62;53.72;95021.02;105489;1261;75509;-45
2023/12/23 03:42:47;;;;;;;1.50;1.10;;;;;;;14.62;53.75;95025.63;105639;1260;66121;-45
2023/12/23 03:45:16;;;;;;;1.90;1.10;;;;;;;14.62;53.66;95024.63;105542;1258;72608;-45
2023/12/23 03:47:44;;;;;;;1.60;1.20;;;;;;;14.62;53.70;95028.17;105198;1260;62595;-45
2023/12/23 03:50:11;;;;;;;1.40;1.20;;;;;;;14.63;53.63;95031.55;105201;1258;62167;-45
2023/12/23 03:52:39;;;;;;;1.50;0.90;;;;;;;14.63;53.72;95030.70;105416;1257;75450;-45
2023/12/23 03:55:07;;;;;;;1.60;1.30;;;;;;;14.63;53.58;95032.63;105282;1261;64809;-46
2023/12/23 03:57:34;;;;;;;1.30;1.00;;;;;;;14.63;53.74;95030.47;105294;1257;71133;-45
2023/12/23 04:00:03;;;;;;;2.20;1.30;;;;;;;14.64;53.62;95032.33;105296;1260;62078;-45
2023/12/23 04:02:39;;;;;;;2.20;1.10;;;;;;;14.64;53.63;95034.86;105211;1257;62135;-45
2023/12/23 04:05:07;;;;;;;1.20;1.00;;;;;;;14.64;53.71;95037.02;105498;1259;75157;-45
2023/12/23 04:07:35;;;;;;;1.90;1.20;;;;;;;14.64;53.60;95038.02;105571;1261;65442;-45
2023/12/23 04:10:03;;;;;;;1.10;0.90;;;;;;;14.64;53.62;95039.87;105280;1258;72692;-45
2023/12/23 04:12:30;;;;;;;1.40;1.00;;;;;;;14.65;53.53;95039.02;105432;1259;62112;-45
2023/12/23 04:14:57;;;;;;;1.30;1.00;;;;;;;14.65;53.61;95038.33;105496;1259;62152;-44
2023/12/23 04:17:25;;;;;;;1.20;0.90;;;;;;;14.65;53.60;95045.26;105620;1260;75365;-45
2023/12/23 04:19:52;;;;;;;1.40;0.90;;;;;;;14.65;53.65;95047.87;105387;1261;66300;-45
2023/12/23 04:22:19;;;;;;;1.60;1.10;;;;;;;14.66;53.53;95055.33;105583;1259;72480;-45
2023/12/23 04:24:47;;;;;;;1.80;1.20;;;;;;;14.66;53.67;95049.41;105285;1264;62081;-45
2023/12/23 04:27:14;;;;;;;1.60;1.10;;;;;;;14.66;53.47;95051.02;105526;1258;62197;-45
2023/12/23 04:29:41;;;;;;;1.00;0.90;;;;;;;14.66;53.56;95058.02;105424;1259;76432;-45
2023/12/23 04:32:09;;;;;;;1.50;0.90;;;;;;;14.66;53.49;95056.56;105423;1260;65674;-45
2023/12/23 04:34:37;;;;;;;1.10;0.90;;;;;;;14.67;53.60;95061.19;105186;1259;71666;-45
2023/12/23 04:37:05;;;;;;;1.10;1.00;;;;;;;14.67;53.50;95062.42;105466;1260;62169;-45
2023/12/23 04:39:32;;;;;;;1.20;0.90;;;;;;;14.66;53.50;95061.50;105190;1259;62096;-46
2023/12/23 04:42:00;;;;;;;1.40;0.90;;;;;;;14.67;53.61;95065.20;105323;1259;75860;-44
2023/12/23 04:44:27;;;;;;;1.60;1.00;;;;;;;14.67;53.58;95069.81;105157;1261;66190;-45
2023/12/23 04:46:55;;;;;;;1.00;0.90;;;;;;;14.67;53.53;95070.81;105362;1258;72570;-45
2023/12/23 04:49:24;;;;;;;1.00;0.90;;;;;;;14.68;53.44;95076.20;105489;1261;62056;-45
2023/12/23 04:51:52;;;;;;;2.30;1.10;;;;;;;14.68;53.59;95071.88;105462;1258;62035;-45
2023/12/23 04:54:19;;;;;;;1.70;1.00;;;;;;;14.68;53.62;95076.11;105113;1261;74469;-46
2023/12/23 04:56:46;;;;;;;1.10;0.80;;;;;;;14.68;53.55;95076.96;105391;1260;66207;-45
2023/12/23 04:59:13;;;;;;;1.20;0.90;;;;;;;14.69;53.51;95079.04;105166;1260;72725;-45
2023/12/23 05:01:41;;;;;;;2.80;0.90;;;;;;;14.69;53.41;95081.42;105048;1261;62683;-45
2023/12/23 05:04:09;;;;;;;1.20;0.90;;;;;;;14.69;53.52;95082.42;105066;1259;62045;-44
2023/12/23 05:06:37;;;;;;;1.20;1.10;;;;;;;14.69;53.46;95087.96;105145;1261;75167;-45
2023/12/23 05:09:05;;;;;;;1.00;0.90;;;;;;;14.69;53.39;95086.98;105432;1261;65688;-45
2023/12/23 05:11:33;;;;;;;1.40;0.90;;;;;;;14.69;53.45;95088.20;105391;1259;72317;-45
2023/12/23 05:14:00;;;;;;;1.70;1.10;;;;;;;14.69;53.36;95093.43;105387;1261;62158;-45
2023/12/23 05:16:27;;;;;;;2.40;1.10;;;;;;;14.70;53.47;95101.20;105128;1263;62165;-45
2023/12/23 05:18:55;;;;;;;1.20;0.90;;;;;;;14.69;53.49;95103.43;105409;1259;75347;-45
2023/12/23 05:21:23;;;;;;;1.10;0.90;;;;;;;14.70;53.47;95108.20;105500;1261;65958;-45
2023/12/23 05:23:50;;;;;;;4.50;1.20;;;;;;;14.70;53.39;95114.36;105106;1262;72638;-45
2023/12/23 05:26:19;;;;;;;1.50;0.90;;;;;;;14.70;53.35;95119.59;105313;1261;61989;-45
2023/12/23 05:28:47;;;;;;;1.20;0.90;;;;;;;14.70;53.39;95117.98;105073;1259;62165;-45
2023/12/23 05:31:15;;;;;;;1.40;1.00;;;;;;;14.71;53.43;95123.60;105302;1261;75431;-45
2023/12/23 05:33:42;;;;;;;1.40;1.00;;;;;;;14.71;53.33;95127.45;105361;1260;67085;-45
2023/12/23 05:36:10;;;;;;;1.60;0.90;;;;;;;14.71;53.34;95135.15;105291;1259;73123;-45
2023/12/23 05:38:37;;;;;;;1.40;0.90;;;;;;;14.71;53.43;95138.45;105197;1260;62076;-45
2023/12/23 05:41:05;;;;;;;1.60;1.10;;;;;;;14.71;53.32;95138.77;105200;1259;62150;-45
2023/12/23 05:43:32;;;;;;;1.10;0.90;;;;;;;14.71;53.40;95146.61;105188;1260;74141;-46
2023/12/23 05:45:59;;;;;;;1.20;1.00;;;;;;;14.71;53.37;95140.61;105185;1258;66005;-46
2023/12/23 05:48:27;;;;;;;1.50;1.10;;;;;;;14.71;53.24;95148.00;105292;1259;72556;-46
2023/12/23 05:50:54;;;;;;;1.50;0.90;;;;;;;14.72;53.35;95144.85;105377;1259;62074;-45
2023/12/23 05:53:22;;;;;;;1.10;0.90;;;;;;;14.72;53.18;95149.69;105454;1259;62023;-45
2023/12/23 05:55:49;;;;;;;1.80;1.10;;;;;;;14.71;53.26;95152.33;105380;1261;75422;-45
2023/12/23 05:58:17;;;;;;;1.10;0.90;;;;;;;14.72;53.28;95156.63;105178;1259;67535;-45
2023/12/23 06:00:44;;;;;;;1.10;1.00;;;;;;;14.71;53.20;95161.86;105226;1257;72996;-45
2023/12/23 06:03:12;;;;;;;1.50;1.00;;;;;;;14.71;53.23;95165.39;105238;1261;62058;-45
2023/12/23 06:05:39;;;;;;;1.60;1.00;;;;;;;14.71;53.31;95174.10;105269;1261;62512;-45
2023/12/23 06:08:07;;;;;;;2.20;1.10;;;;;;;14.71;53.21;95180.88;105280;1257;75435;-45
2023/12/23 06:10:34;;;;;;;1.30;1.00;;;;;;;14.71;53.17;95183.11;105691;1260;66027;-45
2023/12/23 06:13:20;;;;;;;2.50;1.00;;;;;;;14.71;53.15;95178.02;105378;1259;72585;-45
2023/12/23 06:15:48;;;;;;;1.10;0.70;;;;;;;14.71;53.17;95183.94;105519;1261;62161;-45
2023/12/23 06:18:15;;;;;;;1.60;1.10;;;;;;;14.70;53.13;95183.24;105458;1259;62184;-45
2023/12/23 06:20:42;;;;;;;1.60;0.90;;;;;;;14.71;53.20;95185.41;105774;1261;75492;-45
2023/12/23 06:23:10;;;;;;;1.30;1.10;;;;;;;14.70;53.19;95190.40;105345;1261;65115;-45
2023/12/23 06:25:37;;;;;;;1.90;1.10;;;;;;;14.70;53.06;95196.73;105922;1259;72902;-45
2023/12/23 06:28:05;;;;;;;0.90;0.80;;;;;;;14.70;53.15;95202.80;105488;1260;62059;-45
2023/12/23 06:30:32;;;;;;;1.50;1.00;;;;;;;14.71;53.21;95216.05;106137;1259;62162;-45
2023/12/23 06:33:00;;;;;;;1.30;1.00;;;;;;;14.71;53.01;95216.27;105369;1257;74274;-45
2023/12/23 06:35:27;;;;;;;1.30;0.90;;;;;;;14.70;53.13;95222.04;105233;1261;65862;-45
2023/12/23 06:37:55;;;;;;;1.10;0.90;;;;;;;14.71;53.06;95223.50;105258;1259;72410;-45
2023/12/23 06:40:22;;;;;;;1.50;1.00;;;;;;;14.71;53.13;95223.67;105394;1261;62046;-46
2023/12/23 06:42:49;;;;;;;1.50;0.80;;;;;;;14.70;53.06;95230.13;105261;1259;62047;-45
2023/12/23 06:45:17;;;;;;;1.20;0.90;;;;;;;14.71;53.13;95231.20;105550;1259;75407;-45
2023/12/23 06:47:44;;;;;;;1.30;0.90;;;;;;;14.71;53.06;95242.21;105536;1261;65655;-45
2023/12/23 06:50:12;;;;;;;1.80;1.10;;;;;;;14.71;52.92;95245.98;105175;1259;72578;-44
2023/12/23 06:52:41;;;;;;;1.10;0.90;;;;;;;14.70;52.98;95242.36;105301;1258;62163;-44
2023/12/23 06:55:08;;;;;;;1.00;0.80;;;;;;;14.71;53.04;95246.60;105248;1259;62047;-45
2023/12/23 06:57:36;;;;;;;2.40;1.00;;;;;;;14.70;52.99;95249.06;105369;1261;75174;-46
2023/12/23 07:00:07;;;;;;;1.50;1.10;;;;;;;14.70;52.99;95252.45;105090;1259;153905;-44
2023/12/23 07:02:34;;;;;;;1.60;1.10;;;;;;;14.70;53.01;95260.30;105213;1259;72632;-45
2023/12/23 07:05:03;;;;;;;1.20;0.80;;;;;;;14.70;53.08;95266.22;105244;1260;61998;-46
2023/12/23 07:07:30;;;;;;;1.30;1.00;;;;;;;14.69;52.98;95273.31;105270;1257;62048;-45
2023/12/23 07:09:59;;;;;;;1.50;1.00;;;;;;;14.68;53.00;95275.77;105199;1257;75583;-45
2023/12/23 07:12:33;;;;;;;1.50;1.00;;;;;;;14.68;52.97;95278.08;105261;1261;66148;-46
2023/12/23 07:15:03;;;;;;;1.10;1.00;;;;;;;14.69;52.96;95283.62;105259;1259;71625;-45
2023/12/23 07:17:30;;;;;;;1.40;1.10;;;;;;;14.68;52.92;95285.31;105326;1262;62083;-45
2023/12/23 07:20:09;;;;;;;1.20;0.90;;;;;;;14.68;52.99;95290.77;105175;1257;62134;-47
2023/12/23 07:22:36;;;;;;;1.30;0.90;;;;;;;14.68;52.97;95289.77;105269;1261;73925;-46
2023/12/23 07:25:05;;;;;;;1.70;1.10;;;;;;;14.68;52.90;95291.02;105200;1261;66248;-45
2023/12/23 07:27:32;;;;;;;1.20;0.80;;;;;;;14.68;52.97;95295.39;105622;1259;73161;-45
2023/12/23 07:30:00;;;;;;;1.30;1.00;;;;;;;14.69;52.97;95298.71;105261;1261;62058;-45
2023/12/23 07:32:27;;;;;;;1.40;1.00;;;;;;;14.68;52.98;95305.94;105236;1259;62158;-46
2023/12/23 07:34:55;;;;;;;1.30;0.80;;;;;;;14.68;52.96;95307.19;105163;1259;75416;-46
2023/12/23 07:37:22;;;;;;;1.20;0.80;;;;;;;14.69;53.01;95311.41;105282;1258;65801;-45
2023/12/23 07:39:49;;;;;;;3.20;1.10;;;;;;;14.68;52.86;95313.40;105436;1260;72584;-45
2023/12/23 07:42:16;;;;;;;0.80;0.80;;;;;;;14.69;53.00;95317.88;105263;1262;62053;-45
2023/12/23 07:44:44;;;;;;;1.30;0.90;;;;;;;14.70;52.89;95325.88;105211;1259;62123;-45
2023/12/23 07:47:12;;;;;;;1.00;0.80;;;;;;;14.70;52.95;95327.95;105486;1262;75926;-45
2023/12/23 07:49:40;;;;;;;1.10;0.90;;;;;;;14.70;52.93;95339.89;105398;1261;65895;-45
2023/12/23 07:52:07;;;;;;;2.50;0.90;;;;;;;14.69;52.82;95343.35;105214;1260;71608;-45
2023/12/23 07:54:34;;;;;;;1.50;1.00;;;;;;;14.70;52.96;95344.73;105318;1264;62063;-45
2023/12/23 07:57:02;;;;;;;1.00;0.70;;;;;;;14.70;52.91;95349.51;105443;1258;62053;-45
2023/12/23 07:59:29;;;;;;;1.70;1.00;;;;;;;14.70;52.86;95355.60;105323;1261;74042;-45
2023/12/23 08:01:56;;;;;;;1.30;0.90;;;;;;;14.70;52.88;95352.73;105661;1261;65030;-45
2023/12/23 08:04:24;;;;;;;1.10;0.80;;;;;;;14.70;52.82;95360.43;105582;1259;72417;-45
2023/12/23 08:06:52;;;;;;;1.20;0.90;;;;;;;14.70;52.84;95359.52;105408;1259;62088;-45
2023/12/23 08:09:20;;;;;;;1.60;0.90;;;;;;;14.70;52.77;95358.67;105209;1261;62161;-45
2023/12/23 08:11:47;;;;;;;1.00;0.90;;;;;;;14.70;52.79;95363.45;105375;1261;75450;-45
2023/12/23 08:14:15;;;;;;;1.40;0.80;;;;;;;14.70;52.75;95369.14;105509;1261;65451;-45
2023/12/23 08:16:42;;;;;;;1.70;1.00;;;;;;;14.70;52.77;95372.83;105232;1260;72391;-45
2023/12/23 08:19:10;;;;;;;1.30;0.80;;;;;;;14.70;52.78;95370.30;105632;1261;62041;-45
2023/12/23 08:21:37;;;;;;;2.10;0.90;;;;;;;14.70;52.63;95375.45;105471;1258;62134;-45
2023/12/23 08:24:05;;;;;;;1.20;0.90;;;;;;;14.70;52.74;95371.37;105446;1261;75575;-45
2023/12/23 08:26:33;;;;;;;1.50;0.80;;;;;;;14.70;52.68;95375.06;105609;1261;66038;-45
2023/12/23 08:29:01;;;;;;;1.00;0.90;;;;;;;14.71;52.75;95373.16;105522;1259;72609;-45
2023/12/23 08:31:28;;;;;;;1.20;0.90;;;;;;;14.71;52.58;95378.77;105204;1261;61973;-45
2023/12/23 08:33:56;;;;;;;0.90;0.80;;;;;;;14.72;52.80;95384.70;105239;1261;62080;-45
2023/12/23 08:36:23;;;;;;;3.70;1.10;;;;;;;14.71;52.67;95383.46;105282;1261;75486;-45
2023/12/23 08:38:52;;;;;;;1.10;0.80;;;;;;;14.71;52.74;95390.09;105564;1261;65586;-45
2023/12/23 08:41:19;;;;;;;1.50;1.00;;;;;;;14.72;52.54;95390.47;105588;1261;71188;-45
2023/12/23 08:43:46;;;;;;;0.70;0.60;;;;;;;14.72;52.67;95388.23;105636;1260;62077;-45
2023/12/23 08:46:15;;;;;;;1.40;1.00;;;;;;;14.73;52.60;95392.17;105478;1261;62061;-45
2023/12/23 08:48:42;;;;;;;1.10;0.80;;;;;;;14.71;52.62;95399.09;105339;1262;75414;-45
2023/12/23 08:51:10;;;;;;;0.80;0.80;;;;;;;14.72;52.61;95401.02;105418;1262;66258;-45
2023/12/23 08:53:37;;;;;;;1.70;0.80;;;;;;;14.72;52.56;95398.70;105131;1259;71408;-45
2023/12/23 08:56:05;;;;;;;1.00;0.90;;;;;;;14.71;52.57;95401.02;105229;1260;61989;-45
2023/12/23 08:58:33;;;;;;;1.20;0.80;;;;;;;14.71;52.58;95399.85;105272;1257;61955;-46
2023/12/23 09:01:00;;;;;;;1.50;0.90;;;;;;;14.71;52.70;95398.70;105343;1262;75420;-45
2023/12/23 09:03:28;;;;;;;1.10;0.70;;;;;;;14.70;52.61;95397.84;105231;1262;66139;-45
2023/12/23 09:05:56;;;;;;;1.20;0.80;;;;;;;14.70;52.71;95404.46;105477;1259;71634;-45
2023/12/23 09:08:24;;;;;;;1.30;0.90;;;;;;;14.69;52.63;95404.55;105294;1261;62145;-45
2023/12/23 09:10:52;;;;;;;1.10;0.90;;;;;;;14.68;52.59;95402.30;105240;1261;62167;-45
2023/12/23 09:13:19;;;;;;;1.60;1.00;;;;;;;14.69;52.44;95403.55;105446;1261;75406;-45
2023/12/23 09:15:46;;;;;;;1.50;0.80;;;;;;;14.68;52.58;95404.16;105581;1261;65645;-46
2023/12/23 09:18:14;;;;;;;1.00;0.90;;;;;;;14.68;52.58;95405.92;105437;1259;72638;-46
2023/12/23 09:20:41;;;;;;;1.30;0.90;;;;;;;14.67;52.56;95406.93;105436;1262;62052;-46
2023/12/23 09:23:09;;;;;;;0.90;0.80;;;;;;;14.67;52.56;95408.09;105447;1259;62042;-46
2023/12/23 09:25:36;;;;;;;1.00;0.90;;;;;;;14.67;52.59;95408.94;105994;1259;75783;-46
2023/12/23 09:28:04;;;;;;;1.40;0.90;;;;;;;14.66;52.52;95412.23;105571;1262;65598;-45
2023/12/23 09:30:31;;;;;;;1.20;1.00;;;;;;;14.67;52.51;95416.70;105609;1261;71450;-45
2023/12/23 09:32:58;;;;;;;0.80;0.80;;;;;;;14.67;52.55;95411.23;105655;1261;62103;-45
2023/12/23 09:35:26;;;;;;;1.20;1.00;;;;;;;14.67;52.59;95417.70;105577;1257;62053;-45
2023/12/23 09:37:53;;;;;;;0.90;0.80;;;;;;;14.67;52.48;95413.86;105616;1257;75398;-45
2023/12/23 09:40:21;;;;;;;1.10;0.80;;;;;;;14.67;52.43;95413.93;105330;1262;66238;-45
2023/12/23 09:42:48;;;;;;;1.10;0.70;;;;;;;14.67;52.46;95419.48;105608;1257;72644;-44
2023/12/23 09:45:15;;;;;;;1.90;0.90;;;;;;;14.66;52.40;95424.94;105222;1261;62059;-45
2023/12/23 09:47:43;;;;;;;1.20;0.70;;;;;;;14.67;52.51;95424.02;105259;1264;62088;-45
2023/12/23 09:50:10;;;;;;;0.80;0.70;;;;;;;14.67;52.46;95420.40;105543;1261;75253;-45
2023/12/23 09:52:38;;;;;;;0.90;0.80;;;;;;;14.67;52.60;95427.79;105622;1262;66284;-45
2023/12/23 09:55:09;;;;;;;1.40;0.90;;;;;;;14.67;52.51;95424.48;105270;1257;72602;-45
2023/12/23 09:57:36;;;;;;;1.10;0.80;;;;;;;14.68;52.45;95431.95;105208;1260;62192;-45
2023/12/23 10:00:04;;;;;;;1.10;0.70;;;;;;;14.67;52.47;95435.18;105276;1258;62042;-45
2023/12/23 10:02:38;;;;;;;1.20;0.60;;;;;;;14.67;52.42;95437.02;105175;1261;76492;-45
2023/12/23 10:05:06;;;;;;;1.40;0.90;;;;;;;14.67;52.45;95434.71;105182;1262;65512;-45
2023/12/23 10:07:34;;;;;;;1.20;1.00;;;;;;;14.67;52.38;95430.86;105235;1261;72582;-46
2023/12/23 10:10:01;;;;;;;1.50;0.80;;;;;;;14.66;52.43;95429.16;105281;1261;62045;-45
2023/12/23 10:12:29;;;;;;;0.80;0.70;;;;;;;14.66;52.32;95435.55;105496;1259;62040;-45
2023/12/23 10:14:56;;;;;;;1.10;0.80;;;;;;;14.66;52.50;95433.41;105257;1260;75191;-45
2023/12/23 10:17:24;;;;;;;1.20;0.90;;;;;;;14.66;52.44;95433.70;105369;1261;66096;-45
2023/12/23 10:19:52;;;;;;;1.60;1.00;;;;;;;14.65;52.34;95434.16;105517;1264;72410;-46
2023/12/23 10:22:20;;;;;;;1.30;0.80;;;;;;;14.65;52.47;95429.30;105568;1263;62042;-46
2023/12/23 10:24:47;;;;;;;0.80;0.70;;;;;;;14.64;52.42;95426.39;105505;1259;62058;-45
2023/12/23 10:27:16;;;;;;;2.90;1.00;;;;;;;14.64;52.30;95429.70;105204;1262;75492;-45
2023/12/23 10:29:44;;;;;;;1.10;0.80;;;;;;;14.64;52.37;95422.31;105414;1259;66194;-45
2023/12/23 10:32:12;;;;;;;1.00;0.70;;;;;;;14.64;52.33;95421.68;105580;1260;72610;-45
2023/12/23 10:34:43;;;;;;;1.20;0.60;;;;;;;14.63;52.32;95422.29;105498;1259;62601;-45
2023/12/23 10:37:11;;;;;;;0.90;0.80;;;;;;;14.63;52.35;95420.30;105465;1261;62039;-45
2023/12/23 10:39:58;;;;;;;1.00;0.80;;;;;;;14.64;52.22;95421.14;105313;1262;75444;-45
2023/12/23 10:42:25;;;;;;;1.40;0.70;;;;;;;14.64;52.42;95425.30;105300;1264;65780;-45
2023/12/23 10:44:52;;;;;;;1.30;0.80;;;;;;;14.63;52.30;95422.29;105016;1262;72403;-45
2023/12/23 10:47:20;;;;;;;2.80;0.70;;;;;;;14.63;52.37;95420.20;105234;1263;62059;-45
2023/12/23 10:49:49;;;;;;;1.40;0.90;;;;;;;14.63;52.23;95418.90;105552;1262;62039;-45
2023/12/23 10:52:17;;;;;;;0.90;0.80;;;;;;;14.63;52.36;95426.75;105549;1261;75410;-45
2023/12/23 10:54:45;;;;;;;1.60;0.90;;;;;;;14.64;52.35;95432.85;105205;1262;66078;-45
2023/12/23 10:57:13;;;;;;;1.10;0.90;;;;;;;14.63;52.30;95435.07;105443;1261;72247;-45
2023/12/23 10:59:40;;;;;;;1.20;0.80;;;;;;;14.63;52.33;95440.38;105157;1265;62490;-45
2023/12/23 11:02:14;;;;;;;1.70;0.90;;;;;;;14.62;52.18;95446.23;105206;1263;62223;-45
2023/12/23 11:04:44;;;;;;;0.90;0.80;;;;;;;14.62;52.21;95455.54;105403;1262;75205;-45
2023/12/23 11:07:11;;;;;;;2.50;0.80;;;;;;;14.61;52.30;95458.15;105237;1261;65109;-45
2023/12/23 11:09:41;;;;;;;0.80;0.70;;;;;;;14.61;52.21;95455.05;105199;1264;72441;-46
2023/12/23 11:12:08;;;;;;;1.10;0.80;;;;;;;14.60;52.21;95454.84;105510;1259;62816;-45
2023/12/23 11:14:36;;;;;;;1.00;0.80;;;;;;;14.60;52.30;95454.98;105510;1257;62170;-45
2023/12/23 11:17:24;;;;;;;1.00;0.70;;;;;;;14.60;52.21;95453.21;105499;1261;75342;-45
2023/12/23 11:19:54;;;;;;;0.80;0.60;;;;;;;14.59;52.32;95456.60;105240;1271;65109;-45
2023/12/23 11:22:29;;;;;;;1.40;0.70;;;;;;;14.58;52.15;95458.59;105264;1262;72606;-45
2023/12/23 11:24:56;;;;;;;1.20;0.80;;;;;;;14.58;52.23;95456.82;105233;1261;62100;-45
2023/12/23 11:27:33;;;;;;;0.90;0.80;;;;;;;14.57;52.35;95458.28;105402;1262;62057;-46